createdAt,value
2023-05-18T00:01:10.255Z,77.08
2023-05-18T00:03:39.571Z,77.05
2023-05-18T00:06:10.480Z,77.20
2023-05-18T00:08:39.768Z,77.26
2023-05-18T00:11:09.404Z,76.99
2023-05-18T00:13:38.540Z,77.19
2023-05-18T00:16:10.877Z,77.20
2023-05-18T00:18:44.783Z,77.42
2023-05-18T00:21:15.696Z,77.64
2023-05-18T00:23:50.664Z,77.74
2023-05-18T00:26:20.471Z,77.39
2023-05-18T00:28:56.265Z,77.80
2023-05-18T00:31:28.523Z,77.56
2023-05-18T00:34:00.533Z,77.55
2023-05-18T00:36:32.972Z,78.52
2023-05-18T00:39:05.402Z,78.29
2023-05-18T00:41:35.014Z,78.10
2023-05-18T00:44:04.468Z,78.06
2023-05-18T00:46:33.399Z,78.05
2023-05-18T00:49:04.317Z,78.53
2023-05-18T00:51:35.980Z,78.37
2023-05-18T00:54:12.367Z,78.82
2023-05-18T00:56:46.173Z,78.67
2023-05-18T00:59:18.152Z,78.39
2023-05-18T01:01:48.186Z,78.79
2023-05-18T01:04:24.089Z,79.01
2023-05-18T01:07:06.222Z,78.76
2023-05-18T01:09:35.577Z,78.86
2023-05-18T01:12:12.909Z,79.14
2023-05-18T01:14:49.983Z,79.03
2023-05-18T01:17:34.796Z,79.38
2023-05-18T01:20:33.605Z,79.33
2023-05-18T01:23:29.396Z,79.36
2023-05-18T01:26:16.123Z,79.31
2023-05-18T01:28:52.563Z,79.51
2023-05-18T01:31:28.398Z,79.54
2023-05-18T01:33:58.488Z,79.45
2023-05-18T01:36:31.781Z,79.77
2023-05-18T01:39:03.948Z,79.72
2023-05-18T01:41:38.707Z,79.70
2023-05-18T01:44:19.263Z,79.44
2023-05-18T01:47:06.652Z,79.58
2023-05-18T01:49:43.888Z,79.70
2023-05-18T01:52:18.884Z,80.13
2023-05-18T01:54:54.201Z,80.23
2023-05-18T01:57:29.739Z,80.53
2023-05-18T02:00:00.671Z,80.83
2023-05-18T02:02:38.439Z,81.17
2023-05-18T02:05:11.781Z,81.28
2023-05-18T02:07:43.544Z,81.38
2023-05-18T02:10:14.934Z,81.41
2023-05-18T02:12:48.540Z,81.57
2023-05-18T02:15:19.335Z,81.67
2023-05-18T02:17:50.891Z,81.77
2023-05-18T02:20:20.473Z,82.04
2023-05-18T02:22:49.538Z,82.28
2023-05-18T02:25:19.870Z,82.47
2023-05-18T02:27:53.549Z,82.64
2023-05-18T02:30:24.759Z,82.77
2023-05-18T02:32:53.574Z,82.78
2023-05-18T02:35:23.005Z,82.91
2023-05-18T02:37:53.563Z,83.17
2023-05-18T02:40:23.119Z,83.35
2023-05-18T02:42:52.130Z,83.58
2023-05-18T02:45:21.627Z,83.75
2023-05-18T02:47:50.759Z,83.99
2023-05-18T02:50:20.144Z,83.90
2023-05-18T02:52:50.803Z,84.14
2023-05-18T02:55:19.881Z,84.39
2023-05-18T02:58:07.396Z,84.42
2023-05-18T03:01:03.086Z,84.53
2023-05-18T03:03:37.000Z,84.16
2023-05-18T03:06:08.551Z,84.19
2023-05-18T03:08:40.844Z,84.27
2023-05-18T03:11:12.971Z,84.21
2023-05-18T03:13:43.137Z,84.29
2023-05-18T03:16:15.065Z,84.05
2023-05-18T03:18:44.440Z,83.96
2023-05-18T03:21:16.997Z,84.30
2023-05-18T03:23:46.375Z,84.52
2023-05-18T03:26:16.277Z,84.48
2023-05-18T03:28:45.470Z,84.53
2023-05-18T03:31:14.587Z,84.61
2023-05-18T03:33:43.798Z,84.23
2023-05-18T03:36:22.323Z,84.35
2023-05-18T03:38:55.732Z,84.42
2023-05-18T03:41:29.544Z,84.31
2023-05-18T03:44:00.514Z,83.73
2023-05-18T03:46:31.548Z,83.30
2023-05-18T03:49:02.761Z,83.50
2023-05-18T03:51:38.300Z,82.93
2023-05-18T03:54:10.664Z,83.11
2023-05-18T03:56:44.534Z,82.93
2023-05-18T03:59:13.733Z,82.75
2023-05-18T04:01:43.863Z,82.68
2023-05-18T04:04:17.870Z,82.90
2023-05-18T04:06:46.642Z,82.69
2023-05-18T04:09:17.989Z,82.53
2023-05-18T04:11:46.960Z,82.28
2023-05-18T04:14:16.716Z,82.36
2023-05-18T04:16:46.273Z,82.06
2023-05-18T04:19:16.983Z,82.45
2023-05-18T04:21:46.846Z,82.33
2023-05-18T04:24:16.053Z,82.37
2023-05-18T04:26:46.091Z,82.50
2023-05-18T04:29:18.313Z,82.30
2023-05-18T04:31:49.667Z,81.85
2023-05-18T04:34:18.761Z,82.08
2023-05-18T04:36:48.424Z,82.07
2023-05-18T04:39:18.880Z,81.52
2023-05-18T04:41:57.655Z,81.41
2023-05-18T04:44:30.794Z,81.02
2023-05-18T04:47:03.975Z,81.05
2023-05-18T04:49:38.099Z,81.10
2023-05-18T04:52:11.845Z,81.07
2023-05-18T04:54:41.071Z,80.74
2023-05-18T04:57:11.534Z,80.60
2023-05-18T04:59:44.593Z,80.27
2023-05-18T05:02:14.706Z,79.98
2023-05-18T05:04:44.422Z,79.95
2023-05-18T05:07:13.885Z,80.00
2023-05-18T05:09:46.717Z,79.87
2023-05-18T05:12:15.604Z,80.02
2023-05-18T05:14:45.846Z,79.68
2023-05-18T05:17:28.589Z,79.84
2023-05-18T05:19:57.910Z,79.48
2023-05-18T05:22:27.030Z,79.48
2023-05-18T05:24:59.997Z,79.24
2023-05-18T05:27:40.147Z,79.16
2023-05-18T05:30:18.488Z,79.03
2023-05-18T05:32:50.272Z,79.09
2023-05-18T05:35:34.883Z,79.44
2023-05-18T05:38:05.350Z,79.08
2023-05-18T05:40:37.845Z,78.49
2023-05-18T05:43:07.608Z,78.44
2023-05-18T05:45:43.214Z,77.97
2023-05-18T05:48:15.522Z,78.36
2023-05-18T05:50:45.652Z,78.01
2023-05-18T05:53:17.401Z,77.83
2023-05-18T05:55:47.131Z,77.94
2023-05-18T05:58:20.787Z,77.50
2023-05-18T06:00:53.547Z,77.59
2023-05-18T06:03:23.092Z,77.23
2023-05-18T06:05:52.454Z,76.88
2023-05-18T06:08:24.695Z,76.64
2023-05-18T06:10:55.330Z,75.94
2023-05-18T06:13:24.281Z,75.12
2023-05-18T06:15:59.928Z,75.38
2023-05-18T06:18:31.904Z,74.92
2023-05-18T06:21:05.372Z,74.83
2023-05-18T06:23:39.459Z,75.00
2023-05-18T06:26:28.782Z,74.83
2023-05-18T06:29:27.466Z,74.04
2023-05-18T06:32:10.087Z,73.37
2023-05-18T06:34:45.406Z,74.02
2023-05-18T06:37:14.995Z,73.26
2023-05-18T06:39:47.292Z,73.01
2023-05-18T06:42:16.537Z,73.26
2023-05-18T06:44:56.059Z,72.87
2023-05-18T06:47:48.134Z,71.88
2023-05-18T06:50:17.601Z,71.59
2023-05-18T06:52:51.085Z,71.87
2023-05-18T06:55:20.541Z,70.66
2023-05-18T06:57:52.917Z,70.86
2023-05-18T07:00:26.838Z,70.06
2023-05-18T07:02:57.590Z,70.70
2023-05-18T07:05:36.891Z,70.34
2023-05-18T07:08:07.680Z,70.22
2023-05-18T07:10:36.995Z,69.26
2023-05-18T07:13:08.551Z,68.69
2023-05-18T07:15:39.191Z,69.68
2023-05-18T07:18:08.152Z,68.97
2023-05-18T07:20:37.691Z,68.67
2023-05-18T07:23:08.489Z,68.03
2023-05-18T07:25:38.011Z,67.88
2023-05-18T07:28:09.049Z,67.27
2023-05-18T07:30:38.402Z,65.69
2023-05-18T07:33:19.297Z,66.78
2023-05-18T07:35:48.221Z,66.77
2023-05-18T07:38:19.573Z,67.43
2023-05-18T07:40:48.685Z,66.83
2023-05-18T07:43:17.576Z,66.80
2023-05-18T07:45:46.656Z,66.82
2023-05-18T07:48:15.811Z,65.58
2023-05-18T07:50:44.851Z,64.93
2023-05-18T07:53:16.275Z,64.98
2023-05-18T07:55:45.759Z,65.08
2023-05-18T07:58:16.657Z,64.37
2023-05-18T08:00:45.834Z,63.68
2023-05-18T08:03:15.782Z,64.03
2023-05-18T08:05:45.934Z,63.28
2023-05-18T08:08:17.695Z,63.51
2023-05-18T08:10:47.236Z,61.72
2023-05-18T08:13:17.354Z,63.49
2023-05-18T08:15:51.055Z,62.48
2023-05-18T08:18:28.454Z,60.91
2023-05-18T08:20:57.761Z,61.27
2023-05-18T08:23:26.656Z,60.59
2023-05-18T08:25:59.654Z,59.89
2023-05-18T08:28:28.579Z,61.82
2023-05-18T08:30:57.873Z,61.05
2023-05-18T08:33:26.820Z,61.40
2023-05-18T08:35:56.245Z,60.23
2023-05-18T08:38:25.072Z,60.31
2023-05-18T08:41:06.641Z,60.55
2023-05-18T08:43:41.833Z,59.61
2023-05-18T08:46:20.159Z,61.16
2023-05-18T08:48:51.953Z,60.04
2023-05-18T08:51:22.033Z,59.45
2023-05-18T08:53:54.028Z,59.91
2023-05-18T08:56:25.935Z,59.98
2023-05-18T08:59:00.274Z,59.95
2023-05-18T09:01:30.850Z,59.80
2023-05-18T09:04:00.219Z,59.16
2023-05-18T09:06:29.623Z,58.72
2023-05-18T09:08:58.824Z,57.30
2023-05-18T09:11:28.481Z,58.35
2023-05-18T09:13:58.596Z,57.19
2023-05-18T09:16:28.804Z,58.85
2023-05-18T09:18:58.352Z,57.13
2023-05-18T09:21:32.230Z,56.96
2023-05-18T09:24:00.584Z,60.55
2023-05-18T09:26:30.453Z,58.77
2023-05-18T09:28:59.686Z,58.08
2023-05-18T09:31:31.723Z,57.85
2023-05-18T09:34:01.340Z,56.95
2023-05-18T09:36:33.958Z,57.21
2023-05-18T09:39:09.732Z,56.44
2023-05-18T09:41:40.850Z,57.43
2023-05-18T09:44:13.102Z,57.75
2023-05-18T09:46:44.012Z,57.25
2023-05-18T09:49:21.249Z,57.32
2023-05-18T09:51:50.614Z,55.48
2023-05-18T09:54:24.229Z,55.18
2023-05-18T09:57:09.033Z,55.40
2023-05-18T09:59:40.900Z,56.58
2023-05-18T10:02:15.722Z,55.72
2023-05-18T10:04:45.236Z,56.49
2023-05-18T10:07:18.230Z,56.37
2023-05-18T10:09:47.259Z,56.19
2023-05-18T10:12:18.114Z,57.12
2023-05-18T10:14:49.204Z,56.46
2023-05-18T10:17:18.958Z,56.27
2023-05-18T10:19:51.837Z,55.98
2023-05-18T10:22:23.136Z,57.02
2023-05-18T10:24:52.757Z,57.04
2023-05-18T10:27:27.765Z,57.19
2023-05-18T10:29:59.321Z,55.58
2023-05-18T10:32:30.966Z,56.18
2023-05-18T10:35:01.581Z,55.99
2023-05-18T10:37:33.784Z,55.80
2023-05-18T10:40:04.139Z,55.99
2023-05-18T10:42:33.627Z,56.74
2023-05-18T10:45:06.347Z,55.56
2023-05-18T10:47:39.408Z,55.83
2023-05-18T10:50:11.651Z,55.61
2023-05-18T10:52:42.966Z,56.36
2023-05-18T10:55:17.828Z,54.56
2023-05-18T10:57:56.745Z,55.07
2023-05-18T11:00:31.068Z,54.87
2023-05-18T11:03:07.951Z,53.80
2023-05-18T11:05:39.324Z,53.44
2023-05-18T11:08:08.715Z,52.78
2023-05-18T11:10:41.909Z,54.32
2023-05-18T11:13:14.798Z,54.14
2023-05-18T11:16:06.764Z,55.10
2023-05-18T11:18:38.362Z,52.39
2023-05-18T11:21:34.458Z,54.01
2023-05-18T11:24:19.846Z,52.30
2023-05-18T11:26:50.685Z,51.77
2023-05-18T11:29:22.290Z,53.03
2023-05-18T11:31:53.505Z,53.29
2023-05-18T11:34:52.739Z,53.42
2023-05-18T11:37:48.837Z,54.11
2023-05-18T11:40:47.131Z,52.05
2023-05-18T11:43:27.354Z,52.49
2023-05-18T11:46:00.866Z,51.92
2023-05-18T11:48:31.784Z,53.48
2023-05-18T11:51:09.032Z,52.96
2023-05-18T11:53:38.547Z,52.73
2023-05-18T11:56:18.026Z,53.56
2023-05-18T11:59:07.402Z,53.11
2023-05-18T12:01:41.521Z,54.13
2023-05-18T12:04:11.619Z,54.07
2023-05-18T12:06:44.546Z,53.08
2023-05-18T12:09:34.892Z,52.92
2023-05-18T12:12:13.540Z,52.96
2023-05-18T12:14:53.485Z,52.89
2023-05-18T12:17:23.905Z,52.89
2023-05-18T12:19:52.908Z,53.35
2023-05-18T12:22:22.121Z,53.60
2023-05-18T12:24:52.878Z,54.41
2023-05-18T12:27:22.806Z,53.89
2023-05-18T12:29:52.953Z,53.14
2023-05-18T12:32:25.726Z,52.88
2023-05-18T12:34:54.866Z,52.70
2023-05-18T12:37:34.121Z,52.37
2023-05-18T12:40:17.832Z,53.36
2023-05-18T12:42:56.545Z,53.68
2023-05-18T12:45:33.344Z,52.18
2023-05-18T12:48:15.647Z,53.31
2023-05-18T12:50:50.244Z,52.58
2023-05-18T12:53:19.752Z,53.12
2023-05-18T12:55:57.995Z,54.22
2023-05-18T12:58:27.377Z,53.08
2023-05-18T13:00:56.402Z,52.76
2023-05-18T13:03:26.238Z,53.47
2023-05-18T13:06:05.552Z,53.84
2023-05-18T13:08:35.772Z,53.53
2023-05-18T13:11:13.513Z,53.71
2023-05-18T13:14:04.502Z,54.93
2023-05-18T13:16:39.116Z,55.12
2023-05-18T13:19:09.632Z,54.94
2023-05-18T13:21:39.150Z,54.66
2023-05-18T13:24:08.669Z,54.69
2023-05-18T13:26:37.774Z,56.46
2023-05-18T13:29:08.062Z,55.74
2023-05-18T13:31:37.427Z,55.10
2023-05-18T13:34:06.342Z,55.48
2023-05-18T13:36:36.586Z,55.96
2023-05-18T13:39:06.763Z,57.02
2023-05-18T13:41:36.276Z,55.72
2023-05-18T13:44:05.613Z,56.87
2023-05-18T13:46:37.025Z,56.19
2023-05-18T13:49:05.946Z,56.60
2023-05-18T13:51:35.116Z,56.31
2023-05-18T13:54:04.408Z,56.54
2023-05-18T13:56:33.304Z,56.78
2023-05-18T13:59:03.167Z,59.02
2023-05-18T14:01:32.481Z,57.47
2023-05-18T14:04:01.832Z,56.91
2023-05-18T14:06:31.330Z,56.90
2023-05-18T14:09:01.702Z,57.49
2023-05-18T14:11:34.089Z,56.99
2023-05-18T14:14:03.267Z,57.58
2023-05-18T14:16:32.443Z,57.14
2023-05-18T14:19:01.666Z,57.69
2023-05-18T14:21:31.238Z,56.77
2023-05-18T14:24:03.513Z,57.15
2023-05-18T14:26:33.692Z,57.16
2023-05-18T14:29:03.740Z,57.51
2023-05-18T14:31:32.903Z,57.68
2023-05-18T14:34:03.575Z,57.28
2023-05-18T14:36:32.737Z,57.69
2023-05-18T14:39:01.918Z,57.12
2023-05-18T14:41:31.044Z,57.43
2023-05-18T14:44:03.171Z,57.99
2023-05-18T14:46:32.329Z,57.88
2023-05-18T14:49:01.524Z,57.76
2023-05-18T14:51:30.784Z,58.98
2023-05-18T14:54:00.073Z,58.34
2023-05-18T14:56:30.230Z,58.36
2023-05-18T14:58:59.223Z,58.63
2023-05-18T15:01:28.550Z,58.72
2023-05-18T15:03:57.719Z,59.02
2023-05-18T15:06:27.761Z,59.27
2023-05-18T15:08:57.320Z,59.07
2023-05-18T15:11:26.663Z,59.33
2023-05-18T15:13:55.774Z,59.19
2023-05-18T15:16:25.402Z,59.16
2023-05-18T15:18:54.587Z,60.31
2023-05-18T15:21:24.216Z,59.22
2023-05-18T15:23:53.201Z,59.81
2023-05-18T15:26:22.521Z,59.94
2023-05-18T15:28:53.777Z,60.30
2023-05-18T15:31:23.176Z,59.69
2023-05-18T15:33:52.572Z,59.97
2023-05-18T15:36:23.739Z,61.05
2023-05-18T15:38:53.399Z,60.64
2023-05-18T15:41:23.431Z,59.95
2023-05-18T15:43:54.435Z,59.36
2023-05-18T15:46:23.981Z,60.42
2023-05-18T15:48:55.961Z,60.39
2023-05-18T15:51:25.632Z,60.58
2023-05-18T15:53:54.633Z,60.57
2023-05-18T15:56:23.809Z,61.25
2023-05-18T15:58:55.492Z,62.18
2023-05-18T16:01:25.847Z,62.19
2023-05-18T16:03:55.968Z,60.62
2023-05-18T16:06:25.376Z,59.87
2023-05-18T16:08:55.740Z,59.75
2023-05-18T16:11:25.567Z,60.25
2023-05-18T16:13:56.796Z,61.28
2023-05-18T16:16:26.476Z,59.77
2023-05-18T16:18:55.466Z,60.21
2023-05-18T16:21:24.429Z,59.80
2023-05-18T16:23:53.312Z,60.55
2023-05-18T16:26:22.415Z,61.15
2023-05-18T16:28:51.790Z,60.44
2023-05-18T16:31:21.368Z,60.41
2023-05-18T16:33:50.091Z,60.96
2023-05-18T16:36:19.094Z,61.08
2023-05-18T16:38:47.900Z,60.51
2023-05-18T16:41:17.192Z,61.33
2023-05-18T16:43:46.060Z,62.30
2023-05-18T16:46:19.438Z,61.12
2023-05-18T16:48:51.389Z,61.60
2023-05-18T16:51:20.782Z,61.74
2023-05-18T16:53:51.705Z,62.91
2023-05-18T16:56:21.743Z,61.82
2023-05-18T16:58:55.718Z,62.96
2023-05-18T17:01:28.537Z,61.75
2023-05-18T17:03:58.690Z,62.84
2023-05-18T17:06:28.260Z,62.30
2023-05-18T17:08:57.434Z,62.01
2023-05-18T17:11:28.357Z,62.67
2023-05-18T17:13:59.505Z,63.36
2023-05-18T17:16:29.530Z,62.71
2023-05-18T17:18:58.593Z,63.98
2023-05-18T17:21:30.546Z,63.75
2023-05-18T17:23:59.788Z,63.37
2023-05-18T17:26:32.491Z,63.94
2023-05-18T17:29:01.312Z,63.54
2023-05-18T17:31:31.065Z,64.24
2023-05-18T17:34:00.159Z,64.76
2023-05-18T17:36:29.367Z,64.87
2023-05-18T17:38:58.420Z,65.06
2023-05-18T17:41:27.877Z,64.10
2023-05-18T17:44:01.695Z,63.98
2023-05-18T17:46:31.391Z,63.52
2023-05-18T17:49:03.474Z,65.34
2023-05-18T17:51:33.104Z,64.63
2023-05-18T17:54:02.468Z,64.33
2023-05-18T17:56:35.203Z,65.12
2023-05-18T17:59:05.012Z,64.97
2023-05-18T18:01:38.052Z,65.54
2023-05-18T18:04:07.123Z,66.14
2023-05-18T18:06:39.606Z,66.21
2023-05-18T18:09:08.666Z,65.67
2023-05-18T18:11:41.551Z,66.60
2023-05-18T18:14:15.813Z,66.08
2023-05-18T18:16:45.710Z,66.32
2023-05-18T18:19:18.683Z,66.08
2023-05-18T18:21:50.959Z,66.00
2023-05-18T18:24:21.803Z,66.02
2023-05-18T18:26:52.645Z,66.95
2023-05-18T18:29:21.956Z,66.64
2023-05-18T18:31:52.056Z,66.31
2023-05-18T18:34:23.651Z,67.56
2023-05-18T18:37:00.848Z,67.79
2023-05-18T18:39:34.510Z,68.34
2023-05-18T18:42:06.954Z,67.86
2023-05-18T18:44:37.728Z,68.63
2023-05-18T18:47:07.745Z,68.57
2023-05-18T18:49:56.109Z,68.53
2023-05-18T18:52:26.181Z,70.33
2023-05-18T18:54:55.799Z,70.02
2023-05-18T18:57:27.653Z,68.71
2023-05-18T18:59:58.578Z,69.73
2023-05-18T19:02:29.018Z,69.19
2023-05-18T19:04:59.114Z,69.10
2023-05-18T19:07:29.063Z,69.81
2023-05-18T19:09:57.951Z,70.06
2023-05-18T19:12:27.082Z,69.95
2023-05-18T19:14:56.044Z,71.28
2023-05-18T19:17:26.324Z,71.00
2023-05-18T19:19:55.351Z,70.74
2023-05-18T19:22:24.316Z,71.45
2023-05-18T19:24:53.211Z,71.12
2023-05-18T19:27:23.402Z,70.65
2023-05-18T19:29:52.698Z,70.49
2023-05-18T19:32:22.745Z,70.09
2023-05-18T19:34:51.822Z,71.25
2023-05-18T19:37:21.299Z,71.74
2023-05-18T19:39:50.491Z,71.25
2023-05-18T19:42:20.111Z,71.37
2023-05-18T19:44:49.132Z,72.72
2023-05-18T19:47:18.276Z,72.70
2023-05-18T19:49:47.422Z,71.34
2023-05-18T19:52:19.481Z,72.08
2023-05-18T19:54:50.533Z,70.41
2023-05-18T19:57:20.989Z,69.90
2023-05-18T19:59:50.274Z,71.38
2023-05-18T20:02:19.356Z,69.52
2023-05-18T20:04:48.602Z,69.49
2023-05-18T20:07:17.860Z,70.49
2023-05-18T20:09:47.061Z,70.48
2023-05-18T20:12:16.263Z,69.30
2023-05-18T20:14:46.635Z,69.20
2023-05-18T20:17:21.227Z,69.51
2023-05-18T20:19:50.554Z,69.47
2023-05-18T20:22:20.412Z,69.32
2023-05-18T20:24:50.683Z,69.28
2023-05-18T20:27:19.784Z,70.44
2023-05-18T20:29:48.610Z,70.64
2023-05-18T20:32:18.094Z,69.46
2023-05-18T20:34:47.275Z,70.66
2023-05-18T20:37:30.858Z,69.73
2023-05-18T20:40:06.806Z,70.21
2023-05-18T20:42:40.902Z,69.76
2023-05-18T20:45:11.756Z,69.75
2023-05-18T20:47:46.831Z,70.14
2023-05-18T20:50:17.327Z,70.18
2023-05-18T20:52:46.920Z,69.35
2023-05-18T20:55:17.949Z,70.61
2023-05-18T20:57:50.361Z,69.73
2023-05-18T21:00:22.906Z,70.46
2023-05-18T21:02:53.984Z,69.40
2023-05-18T21:05:23.202Z,69.24
2023-05-18T21:07:52.974Z,68.98
2023-05-18T21:10:25.970Z,69.77
2023-05-18T21:12:55.547Z,70.11
2023-05-18T21:15:26.848Z,69.48
2023-05-18T21:18:03.245Z,69.59
2023-05-18T21:20:33.352Z,70.18
2023-05-18T21:23:03.913Z,70.06
2023-05-18T21:25:33.918Z,70.86
2023-05-18T21:28:06.524Z,70.93
2023-05-18T21:30:35.312Z,71.64
2023-05-18T21:33:05.534Z,71.55
2023-05-18T21:35:34.863Z,72.03
2023-05-18T21:38:07.066Z,72.28
2023-05-18T21:40:36.067Z,71.21
2023-05-18T21:43:07.148Z,71.88
2023-05-18T21:45:36.013Z,72.76
2023-05-18T21:48:09.760Z,72.31
2023-05-18T21:50:38.746Z,72.75
2023-05-18T21:53:08.211Z,72.40
2023-05-18T21:55:37.237Z,72.41
2023-05-18T21:58:06.951Z,72.93
2023-05-18T22:00:37.675Z,72.32
2023-05-18T22:03:09.622Z,72.10
2023-05-18T22:05:40.895Z,71.69
2023-05-18T22:08:11.186Z,72.21
2023-05-18T22:10:43.223Z,72.07
2023-05-18T22:13:13.479Z,72.08
2023-05-18T22:15:42.299Z,71.88
2023-05-18T22:18:11.478Z,72.23
2023-05-18T22:20:41.313Z,72.33
2023-05-18T22:23:10.955Z,72.35
2023-05-18T22:25:42.165Z,72.49
2023-05-18T22:28:12.361Z,72.85
2023-05-18T22:30:44.251Z,72.99
2023-05-18T22:33:14.049Z,72.32
2023-05-18T22:35:43.040Z,72.78
2023-05-18T22:38:14.021Z,73.01
2023-05-18T22:40:43.779Z,73.24
2023-05-18T22:43:14.729Z,73.12
2023-05-18T22:45:43.582Z,72.92
2023-05-18T22:48:15.767Z,73.48
2023-05-18T22:50:47.769Z,73.94
2023-05-18T22:53:16.745Z,74.06
2023-05-18T22:55:48.522Z,74.07
2023-05-18T22:58:17.647Z,74.74
2023-05-18T23:00:46.628Z,74.13
2023-05-18T23:03:19.097Z,74.45
2023-05-18T23:05:48.320Z,74.61
2023-05-18T23:08:17.227Z,75.04
2023-05-18T23:10:46.138Z,74.76
2023-05-18T23:13:16.889Z,75.24
2023-05-18T23:15:47.203Z,75.72
2023-05-18T23:18:18.497Z,76.09
2023-05-18T23:20:50.107Z,76.29
2023-05-18T23:23:27.459Z,76.30
2023-05-18T23:25:59.605Z,76.49
2023-05-18T23:28:29.413Z,76.99
2023-05-18T23:31:03.021Z,77.25
2023-05-18T23:33:34.587Z,77.14
2023-05-18T23:36:08.056Z,77.22
2023-05-18T23:38:40.350Z,77.73
2023-05-18T23:41:10.260Z,77.84
2023-05-18T23:43:43.410Z,78.16
2023-05-18T23:46:16.481Z,77.84
2023-05-18T23:48:46.617Z,78.52
2023-05-18T23:51:18.717Z,78.91
2023-05-18T23:53:58.965Z,78.90
2023-05-18T23:56:29.051Z,79.37
2023-05-18T23:59:00.937Z,79.19
